Time;durP1;ratioP1;P1;durP2;ratioP2;P2;SDS_P1;SDS_P2;PMS_P1;PMS_P2;Temp;Humidity;BMP_temperature;BMP_pressure;BME280_temperature;BME280_humidity;BME280_pressure;Samples;Min_cycle;Max_cycle;Signal;HPM_P1;HPM_P2
2023/09/25 00:04:25;;;;;;;3.03;1.27;;;;;;;;;;10339820;28;20557;-59
2023/09/25 00:09:27;;;;;;;1.25;1.05;;;;;;;;;;10346677;28;20022;-59
2023/09/25 00:14:29;;;;;;;1.73;1.10;;;;;;;;;;10351125;28;20040;-58
2023/09/25 00:19:29;;;;;;;3.53;1.30;;;;;;;;;;10357616;28;20065;-59
2023/09/25 00:24:30;;;;;;;3.70;1.23;;;;;;;;;;10356270;28;20393;-58
2023/09/25 00:29:31;;;;;;;3.28;1.38;;;;;;;;;;10340133;28;20315;-57
2023/09/25 00:34:31;;;;;;;2.15;1.15;;;;;;;;;;10359493;28;20023;-58
2023/09/25 00:39:32;;;;;;;1.85;1.02;;;;;;;;;;10341711;28;20037;-57
2023/09/25 00:44:33;;;;;;;1.10;0.90;;;;;;;;;;10362748;28;20029;-57
2023/09/25 00:49:33;;;;;;;1.65;0.90;;;;;;;;;;10353270;28;20049;-59
2023/09/25 00:54:34;;;;;;;6.05;1.30;;;;;;;;;;10337021;28;20026;-59
2023/09/25 00:59:38;;;;;;;2.97;0.90;;;;;;;;;;10362561;28;20037;-59
2023/09/25 01:04:39;;;;;;;1.10;0.88;;;;;;;;;;10337395;28;20049;-58
2023/09/25 01:09:40;;;;;;;2.17;0.98;;;;;;;;;;10341616;28;20041;-59
2023/09/25 01:14:40;;;;;;;1.08;0.90;;;;;;;;;;10351422;28;20023;-59
2023/09/25 01:19:44;;;;;;;3.70;1.10;;;;;;;;;;10356851;28;20034;-58
2023/09/25 01:24:44;;;;;;;3.83;1.17;;;;;;;;;;10351150;28;20100;-59
2023/09/25 01:29:45;;;;;;;2.00;0.90;;;;;;;;;;10356874;28;20087;-59
2023/09/25 01:34:46;;;;;;;1.83;1.13;;;;;;;;;;10363353;28;20026;-59
2023/09/25 01:39:47;;;;;;;3.13;1.00;;;;;;;;;;10344946;28;20029;-59
2023/09/25 01:44:47;;;;;;;0.75;0.73;;;;;;;;;;10345822;28;20030;-59
2023/09/25 01:49:48;;;;;;;1.13;0.88;;;;;;;;;;10332493;28;20046;-58
2023/09/25 01:54:50;;;;;;;2.55;1.10;;;;;;;;;;10368787;28;20026;-56
2023/09/25 01:59:51;;;;;;;0.82;0.77;;;;;;;;;;10343960;28;20045;-58
2023/09/25 02:04:51;;;;;;;1.13;0.93;;;;;;;;;;10344244;28;20037;-57
2023/09/25 02:09:52;;;;;;;0.73;0.73;;;;;;;;;;10344333;28;20080;-58
2023/09/25 02:14:58;;;;;;;1.02;0.90;;;;;;;;;;10353065;28;20033;-59
2023/09/25 02:20:16;;;;;;;1.77;1.00;;;;;;;;;;10367760;28;20034;-57
2023/09/25 02:25:17;;;;;;;5.15;1.10;;;;;;;;;;10347864;28;20440;-58
2023/09/25 02:30:18;;;;;;;1.67;0.98;;;;;;;;;;10339221;28;20125;-57
2023/09/25 02:35:18;;;;;;;1.35;0.90;;;;;;;;;;10336797;28;20054;-57
2023/09/25 02:40:19;;;;;;;1.00;0.90;;;;;;;;;;10354650;28;20030;-60
2023/09/25 02:45:20;;;;;;;1.63;0.82;;;;;;;;;;10351612;28;20684;-58
2023/09/25 02:50:20;;;;;;;1.40;0.77;;;;;;;;;;10353833;28;20050;-57
2023/09/25 02:55:21;;;;;;;0.82;0.80;;;;;;;;;;10355149;28;20030;-57
2023/09/25 03:00:21;;;;;;;1.63;1.05;;;;;;;;;;10359361;28;20027;-59
2023/09/25 03:05:22;;;;;;;5.47;1.05;;;;;;;;;;10330054;28;20022;-57
2023/09/25 03:10:23;;;;;;;3.50;1.00;;;;;;;;;;10359919;28;20048;-58
2023/09/25 03:15:24;;;;;;;1.15;0.77;;;;;;;;;;10359917;28;20038;-63
2023/09/25 03:20:24;;;;;;;1.35;1.00;;;;;;;;;;10360083;28;20561;-57
2023/09/25 03:25:25;;;;;;;1.45;1.00;;;;;;;;;;10330034;28;20406;-55
2023/09/25 03:30:26;;;;;;;2.08;1.05;;;;;;;;;;10328544;28;20382;-57
2023/09/25 03:35:26;;;;;;;1.58;0.82;;;;;;;;;;10340148;28;20375;-59
2023/09/25 03:40:27;;;;;;;1.73;0.80;;;;;;;;;;10328979;28;20053;-58
2023/09/25 03:45:28;;;;;;;1.25;0.65;;;;;;;;;;10340582;28;20066;-56
2023/09/25 03:50:28;;;;;;;8.63;0.80;;;;;;;;;;10328896;28;20053;-59
2023/09/25 03:55:29;;;;;;;1.00;0.63;;;;;;;;;;10364012;28;20041;-60
2023/09/25 04:00:30;;;;;;;1.55;0.80;;;;;;;;;;10350974;28;20069;-59
2023/09/25 04:05:33;;;;;;;2.42;1.08;;;;;;;;;;10339398;28;20500;-60
2023/09/25 04:10:33;;;;;;;1.75;0.90;;;;;;;;;;10328947;28;20031;-59
2023/09/25 04:15:34;;;;;;;1.63;1.00;;;;;;;;;;10348968;28;20505;-60
2023/09/25 04:20:38;;;;;;;0.90;0.80;;;;;;;;;;10337874;28;20117;-59
2023/09/25 04:25:39;;;;;;;2.38;0.80;;;;;;;;;;10339617;28;20061;-59
2023/09/25 04:30:39;;;;;;;1.48;1.00;;;;;;;;;;10343145;28;20566;-59
2023/09/25 04:35:40;;;;;;;1.08;0.98;;;;;;;;;;10342042;28;20034;-59
2023/09/25 04:40:42;;;;;;;0.82;0.82;;;;;;;;;;10348789;28;20508;-59
2023/09/25 04:45:43;;;;;;;1.10;0.60;;;;;;;;;;10338964;28;20106;-54
2023/09/25 04:50:44;;;;;;;0.70;0.70;;;;;;;;;;10339065;28;20025;-56
2023/09/25 04:55:45;;;;;;;1.10;0.68;;;;;;;;;;10340945;28;20029;-58
2023/09/25 05:00:46;;;;;;;1.80;0.75;;;;;;;;;;10367378;28;20044;-54
2023/09/25 05:05:46;;;;;;;1.40;0.93;;;;;;;;;;10370527;28;20036;-55
2023/09/25 05:10:49;;;;;;;1.25;0.80;;;;;;;;;;10365580;28;20026;-59
2023/09/25 05:15:50;;;;;;;2.85;0.70;;;;;;;;;;10365984;28;20492;-60
2023/09/25 05:20:50;;;;;;;6.40;0.73;;;;;;;;;;10357652;28;20034;-63
2023/09/25 05:25:52;;;;;;;0.88;0.80;;;;;;;;;;10357847;28;20038;-59
2023/09/25 05:30:56;;;;;;;2.05;0.80;;;;;;;;;;10350436;28;20030;-59
2023/09/25 05:35:56;;;;;;;0.77;0.77;;;;;;;;;;10353004;28;20022;-58
2023/09/25 05:40:58;;;;;;;1.15;0.82;;;;;;;;;;10365207;28;20030;-64
2023/09/25 05:46:01;;;;;;;9.88;1.13;;;;;;;;;;10361491;28;20046;-63
2023/09/25 05:51:02;;;;;;;2.25;0.82;;;;;;;;;;10352209;28;20543;-62
2023/09/25 05:56:03;;;;;;;3.95;0.80;;;;;;;;;;10352128;28;20042;-62
2023/09/25 06:01:05;;;;;;;1.80;1.08;;;;;;;;;;10341191;28;20044;-62
2023/09/25 06:06:05;;;;;;;5.68;1.13;;;;;;;;;;10344847;28;20055;-60
2023/09/25 06:11:06;;;;;;;8.15;1.50;;;;;;;;;;10351832;28;20348;-60
2023/09/25 06:16:06;;;;;;;25.13;1.90;;;;;;;;;;10348260;28;20429;-61
2023/09/25 06:21:10;;;;;;;13.93;2.03;;;;;;;;;;10342183;28;20034;-60
2023/09/25 06:26:10;;;;;;;12.63;1.83;;;;;;;;;;10354801;28;20213;-63
2023/09/25 06:31:12;;;;;;;3.75;1.73;;;;;;;;;;10356535;28;20022;-60
2023/09/25 06:36:13;;;;;;;2.90;1.30;;;;;;;;;;10347793;28;20488;-59
2023/09/25 06:41:14;;;;;;;12.35;1.92;;;;;;;;;;10359568;28;20033;-60
2023/09/25 06:46:15;;;;;;;6.13;1.42;;;;;;;;;;10348624;28;20042;-59
2023/09/25 06:51:17;;;;;;;4.28;1.73;;;;;;;;;;10348866;28;20030;-59
2023/09/25 06:56:18;;;;;;;10.10;1.98;;;;;;;;;;10330509;28;20025;-58
2023/09/25 07:01:20;;;;;;;5.28;1.63;;;;;;;;;;10329652;28;20049;-60
2023/09/25 07:06:20;;;;;;;4.30;1.58;;;;;;;;;;10329850;28;20022;-60
2023/09/25 07:11:21;;;;;;;7.80;1.85;;;;;;;;;;10331684;28;20026;-61
2023/09/25 07:16:21;;;;;;;3.45;1.45;;;;;;;;;;10352628;28;20076;-59
2023/09/25 07:21:22;;;;;;;10.98;1.70;;;;;;;;;;10329804;28;20026;-59
2023/09/25 07:26:23;;;;;;;2.10;1.33;;;;;;;;;;10329400;28;20030;-58
2023/09/25 07:31:23;;;;;;;5.80;1.48;;;;;;;;;;10329400;28;20037;-59
2023/09/25 07:36:24;;;;;;;3.97;1.48;;;;;;;;;;10337112;28;20406;-59
2023/09/25 07:41:25;;;;;;;4.82;1.42;;;;;;;;;;10332432;28;20441;-58
2023/09/25 07:46:25;;;;;;;3.15;1.02;;;;;;;;;;10335566;28;20038;-60
2023/09/25 07:51:29;;;;;;;4.18;1.20;;;;;;;;;;10346396;28;20034;-59
2023/09/25 07:56:30;;;;;;;2.22;1.27;;;;;;;;;;10335149;28;20191;-61
2023/09/25 08:01:30;;;;;;;3.53;1.10;;;;;;;;;;10340620;28;20029;-59
2023/09/25 08:06:31;;;;;;;3.20;1.38;;;;;;;;;;10351969;28;20464;-60
2023/09/25 08:11:32;;;;;;;3.08;1.13;;;;;;;;;;10339671;28;20389;-59
2023/09/25 08:16:32;;;;;;;6.15;1.23;;;;;;;;;;10337150;28;20022;-60
2023/09/25 08:21:33;;;;;;;2.10;1.45;;;;;;;;;;10342364;28;20037;-58
2023/09/25 08:26:34;;;;;;;5.18;1.10;;;;;;;;;;10350247;28;20030;-59
2023/09/25 08:31:34;;;;;;;2.08;1.13;;;;;;;;;;10340448;28;20018;-60
2023/09/25 08:36:35;;;;;;;2.00;1.05;;;;;;;;;;10343453;28;20022;-59
2023/09/25 08:41:36;;;;;;;3.65;1.33;;;;;;;;;;10347968;28;20030;-57
2023/09/25 08:46:37;;;;;;;4.63;1.17;;;;;;;;;;10334459;28;20051;-59
2023/09/25 08:51:39;;;;;;;1.60;1.10;;;;;;;;;;10355212;28;20030;-59
2023/09/25 08:56:39;;;;;;;1.67;1.15;;;;;;;;;;10364566;28;20492;-59
2023/09/25 09:01:40;;;;;;;1.88;1.17;;;;;;;;;;10358279;28;20037;-59
2023/09/25 09:06:41;;;;;;;1.75;1.20;;;;;;;;;;10341597;28;20038;-58
2023/09/25 09:11:52;;;;;;;3.05;1.02;;;;;;;;;;10338491;28;20454;-59
2023/09/25 09:16:58;;;;;;;2.03;0.82;;;;;;;;;;10363529;28;20086;-59
2023/09/25 09:22:05;;;;;;;1.38;1.20;;;;;;;;;;10346179;28;20022;-58
2023/09/25 09:27:09;;;;;;;1.75;1.02;;;;;;;;;;10347243;28;20487;-58
2023/09/25 09:32:11;;;;;;;1.42;1.08;;;;;;;;;;10353352;28;20026;-59
2023/09/25 09:37:14;;;;;;;1.60;1.20;;;;;;;;;;10352856;28;20045;-59
2023/09/25 09:42:15;;;;;;;1.75;1.15;;;;;;;;;;10361181;28;20084;-57
2023/09/25 09:47:19;;;;;;;1.23;1.10;;;;;;;;;;10362476;28;20149;-59
2023/09/25 09:52:20;;;;;;;2.70;1.20;;;;;;;;;;10346746;28;20529;-59
2023/09/25 09:57:21;;;;;;;1.35;1.08;;;;;;;;;;10357244;28;20030;-59
2023/09/25 10:02:22;;;;;;;2.78;1.40;;;;;;;;;;10345834;28;20049;-60
2023/09/25 10:07:23;;;;;;;2.05;1.17;;;;;;;;;;10332570;28;20034;-58
2023/09/25 10:12:49;;;;;;;1.42;0.95;;;;;;;;;;10342568;28;20026;-58
2023/09/25 10:17:49;;;;;;;2.45;1.20;;;;;;;;;;10343953;28;20060;-58
2023/09/25 10:22:50;;;;;;;1.17;0.93;;;;;;;;;;10355410;28;20586;-59
2023/09/25 10:27:52;;;;;;;2.22;1.05;;;;;;;;;;10331366;28;20034;-58
2023/09/25 10:32:55;;;;;;;1.40;1.00;;;;;;;;;;10341731;28;20084;-58
2023/09/25 10:38:19;;;;;;;1.92;1.00;;;;;;;;;;10330481;28;20034;-59
2023/09/25 10:43:24;;;;;;;1.30;1.02;;;;;;;;;;10351787;28;20030;-59
2023/09/25 10:48:27;;;;;;;1.20;0.90;;;;;;;;;;10333131;28;20145;-59
2023/09/25 10:53:28;;;;;;;1.10;0.90;;;;;;;;;;10351915;28;20026;-58
2023/09/25 10:58:28;;;;;;;1.30;0.98;;;;;;;;;;10334199;28;20042;-59
2023/09/25 11:03:29;;;;;;;1.08;0.80;;;;;;;;;;10329546;28;20031;-59
2023/09/25 11:08:34;;;;;;;2.30;1.30;;;;;;;;;;10348847;28;20116;-58
2023/09/25 11:13:35;;;;;;;4.63;0.95;;;;;;;;;;10346589;28;20061;-59
2023/09/25 11:18:35;;;;;;;1.73;1.02;;;;;;;;;;10346526;28;20029;-62
2023/09/25 11:23:37;;;;;;;2.70;1.20;;;;;;;;;;10347054;28;20023;-58
2023/09/25 11:28:38;;;;;;;0.80;0.80;;;;;;;;;;10329682;28;20022;-59
2023/09/25 11:33:39;;;;;;;1.45;1.05;;;;;;;;;;10330360;28;20304;-59
2023/09/25 11:38:39;;;;;;;1.88;1.10;;;;;;;;;;10332405;28;20353;-58
2023/09/25 11:43:40;;;;;;;1.17;1.00;;;;;;;;;;10336623;28;20031;-59
2023/09/25 11:48:41;;;;;;;1.00;0.90;;;;;;;;;;10357736;28;20045;-59
2023/09/25 11:53:41;;;;;;;1.83;1.00;;;;;;;;;;10358137;28;20061;-59
2023/09/25 11:58:42;;;;;;;2.05;1.10;;;;;;;;;;10343668;28;20045;-58
2023/09/25 12:03:43;;;;;;;4.13;0.90;;;;;;;;;;10358256;28;20505;-59
2023/09/25 12:08:43;;;;;;;0.82;0.82;;;;;;;;;;10355546;28;20023;-62
2023/09/25 12:13:45;;;;;;;2.47;1.00;;;;;;;;;;10360419;28;20030;-61
2023/09/25 12:18:45;;;;;;;3.03;1.25;;;;;;;;;;10362795;28;20033;-59
2023/09/25 12:23:46;;;;;;;2.63;1.08;;;;;;;;;;10363039;28;20026;-59
2023/09/25 12:28:47;;;;;;;1.50;1.00;;;;;;;;;;10361452;28;20030;-58
2023/09/25 12:33:49;;;;;;;2.10;1.20;;;;;;;;;;10358096;28;20025;-59
2023/09/25 12:38:50;;;;;;;1.20;0.90;;;;;;;;;;10335308;28;20363;-58
2023/09/25 12:43:50;;;;;;;1.27;1.17;;;;;;;;;;10327877;28;20027;-59
2023/09/25 12:48:51;;;;;;;2.70;1.10;;;;;;;;;;10327211;28;20043;-59
2023/09/25 12:53:52;;;;;;;8.60;1.08;;;;;;;;;;10346975;28;20030;-59
2023/09/25 12:58:54;;;;;;;1.08;0.98;;;;;;;;;;10345255;28;20401;-59
2023/09/25 13:03:55;;;;;;;0.93;0.93;;;;;;;;;;10356892;28;20069;-59
2023/09/25 13:08:56;;;;;;;2.28;1.20;;;;;;;;;;10331187;28;20061;-62
2023/09/25 13:13:56;;;;;;;5.00;1.27;;;;;;;;;;10344575;28;20521;-59
2023/09/25 13:18:58;;;;;;;1.08;0.98;;;;;;;;;;10342627;28;20026;-61
2023/09/25 13:23:58;;;;;;;2.55;0.95;;;;;;;;;;10355068;28;20160;-59
2023/09/25 13:28:59;;;;;;;2.45;1.23;;;;;;;;;;10339797;28;20351;-59
2023/09/25 13:34:00;;;;;;;3.15;1.40;;;;;;;;;;10347499;28;20033;-59
2023/09/25 13:39:01;;;;;;;3.08;1.17;;;;;;;;;;10364760;28;20080;-59
2023/09/25 13:44:01;;;;;;;2.63;1.20;;;;;;;;;;10343126;28;20033;-59
2023/09/25 13:49:02;;;;;;;4.05;1.23;;;;;;;;;;10351733;28;20038;-59
2023/09/25 13:54:03;;;;;;;3.08;1.30;;;;;;;;;;10343118;28;20030;-58
2023/09/25 13:59:04;;;;;;;4.22;1.50;;;;;;;;;;10341078;28;20026;-58
2023/09/25 14:04:06;;;;;;;3.75;1.70;;;;;;;;;;10342803;28;20421;-60
2023/09/25 14:09:08;;;;;;;5.90;1.80;;;;;;;;;;10351429;28;20037;-59
2023/09/25 14:14:09;;;;;;;5.43;1.70;;;;;;;;;;10350289;28;20056;-59
2023/09/25 14:19:10;;;;;;;5.38;1.38;;;;;;;;;;10332913;28;20375;-62
2023/09/25 14:24:10;;;;;;;6.13;1.83;;;;;;;;;;10346399;28;20026;-63
2023/09/25 14:29:11;;;;;;;13.35;1.92;;;;;;;;;;10338605;28;20044;-57
2023/09/25 14:34:12;;;;;;;7.25;2.20;;;;;;;;;;10337608;28;20029;-59
2023/09/25 14:39:12;;;;;;;3.30;2.00;;;;;;;;;;10354644;28;20029;-58
2023/09/25 14:44:13;;;;;;;3.47;1.80;;;;;;;;;;10353289;28;20026;-59
2023/09/25 14:49:13;;;;;;;5.53;1.58;;;;;;;;;;10355414;28;20046;-59
2023/09/25 14:54:14;;;;;;;2.78;1.60;;;;;;;;;;10330664;28;20381;-58
2023/09/25 14:59:34;;;;;;;5.35;2.13;;;;;;;;;;10340990;28;20351;-59
2023/09/25 15:04:35;;;;;;;6.72;1.60;;;;;;;;;;10318506;28;20063;-58
2023/09/25 15:09:37;;;;;;;4.10;1.50;;;;;;;;;;10320535;28;20050;-58
2023/09/25 15:14:37;;;;;;;3.20;1.52;;;;;;;;;;10316244;28;20049;-59
2023/09/25 15:19:38;;;;;;;6.78;1.85;;;;;;;;;;10320971;28;20046;-58
2023/09/25 15:24:38;;;;;;;3.70;1.38;;;;;;;;;;10309156;28;20441;-58
2023/09/25 15:29:41;;;;;;;6.05;1.77;;;;;;;;;;10307439;28;20075;-57
2023/09/25 15:34:42;;;;;;;3.15;1.38;;;;;;;;;;10308026;28;20046;-58
2023/09/25 15:39:43;;;;;;;3.05;1.70;;;;;;;;;;10330925;28;20434;-62
2023/09/25 15:44:44;;;;;;;3.60;1.88;;;;;;;;;;10358349;28;20042;-58
2023/09/25 15:49:49;;;;;;;3.53;1.50;;;;;;;;;;10352293;28;20050;-57
2023/09/25 15:54:50;;;;;;;5.60;1.35;;;;;;;;;;10353490;28;20022;-58
2023/09/25 15:59:50;;;;;;;3.30;1.70;;;;;;;;;;10358858;28;20033;-59
2023/09/25 16:04:51;;;;;;;2.90;1.60;;;;;;;;;;10345567;28;20021;-58
2023/09/25 16:09:52;;;;;;;7.70;1.60;;;;;;;;;;10340702;28;20386;-59
2023/09/25 16:14:54;;;;;;;3.85;1.55;;;;;;;;;;10361748;28;20088;-58
2023/09/25 16:19:55;;;;;;;3.80;1.55;;;;;;;;;;10354681;28;20091;-57
2023/09/25 16:24:56;;;;;;;1.73;1.30;;;;;;;;;;10351496;28;20027;-58
2023/09/25 16:29:56;;;;;;;3.28;1.50;;;;;;;;;;10362480;28;20188;-63
2023/09/25 16:34:58;;;;;;;2.15;1.10;;;;;;;;;;10327670;28;20030;-63
2023/09/25 16:39:58;;;;;;;2.63;1.70;;;;;;;;;;10351582;28;20083;-59
2023/09/25 16:45:03;;;;;;;4.10;1.67;;;;;;;;;;10345676;28;20057;-58
2023/09/25 16:50:04;;;;;;;2.28;1.23;;;;;;;;;;10359482;28;20046;-59
2023/09/25 16:55:05;;;;;;;4.10;1.88;;;;;;;;;;10332428;28;20134;-59
2023/09/25 17:00:07;;;;;;;5.78;1.65;;;;;;;;;;10352714;28;20067;-59
2023/09/25 17:05:08;;;;;;;5.53;1.20;;;;;;;;;;10366454;28;20029;-59
2023/09/25 17:10:09;;;;;;;2.50;1.45;;;;;;;;;;10365848;28;20021;-59
2023/09/25 17:15:10;;;;;;;3.85;1.70;;;;;;;;;;10370471;28;20532;-59
2023/09/25 17:20:11;;;;;;;1.65;1.20;;;;;;;;;;10365061;28;20092;-59
2023/09/25 17:25:13;;;;;;;4.03;1.63;;;;;;;;;;10361969;28;20053;-59
2023/09/25 17:30:14;;;;;;;3.58;1.35;;;;;;;;;;10363163;28;20029;-61
2023/09/25 17:35:15;;;;;;;2.47;1.45;;;;;;;;;;10358012;28;20022;-63
2023/09/25 17:40:16;;;;;;;1.60;1.15;;;;;;;;;;10358499;28;20037;-63
2023/09/25 17:45:17;;;;;;;3.28;1.50;;;;;;;;;;10362092;28;20157;-62
2023/09/25 17:50:17;;;;;;;5.00;1.58;;;;;;;;;;10347663;28;20539;-62
2023/09/25 17:55:18;;;;;;;1.38;1.17;;;;;;;;;;10361257;28;20075;-62
2023/09/25 18:00:18;;;;;;;8.68;1.60;;;;;;;;;;10365623;28;20030;-62
2023/09/25 18:05:19;;;;;;;2.60;1.30;;;;;;;;;;10352981;28;20471;-62
2023/09/25 18:10:20;;;;;;;2.28;1.42;;;;;;;;;;10344558;28;20052;-62
2023/09/25 18:15:23;;;;;;;7.50;1.30;;;;;;;;;;10350339;28;20026;-62
2023/09/25 18:20:24;;;;;;;6.68;1.63;;;;;;;;;;10349574;28;20026;-61
2023/09/25 18:25:24;;;;;;;3.67;1.42;;;;;;;;;;10349897;28;20030;-62
2023/09/25 18:30:26;;;;;;;2.67;1.38;;;;;;;;;;10340215;28;20030;-59
2023/09/25 18:35:27;;;;;;;2.80;1.52;;;;;;;;;;10337004;28;20065;-58
2023/09/25 18:40:29;;;;;;;15.32;2.60;;;;;;;;;;10353059;28;20033;-60
2023/09/25 18:45:30;;;;;;;6.28;1.95;;;;;;;;;;10347207;28;20034;-60
2023/09/25 18:50:31;;;;;;;7.85;1.90;;;;;;;;;;10347278;28;20053;-60
2023/09/25 18:55:31;;;;;;;4.85;1.77;;;;;;;;;;10347605;28;20129;-61
2023/09/25 19:00:32;;;;;;;6.32;1.80;;;;;;;;;;10352331;28;20600;-60
2023/09/25 19:05:33;;;;;;;8.20;1.73;;;;;;;;;;10354625;28;20477;-60
2023/09/25 19:10:33;;;;;;;9.82;1.60;;;;;;;;;;10351212;28;20077;-60
2023/09/25 19:15:34;;;;;;;3.97;2.08;;;;;;;;;;10362236;28;20037;-60
2023/09/25 19:20:35;;;;;;;5.38;1.92;;;;;;;;;;10364782;28;20037;-60
2023/09/25 19:25:35;;;;;;;5.22;1.90;;;;;;;;;;10352269;28;20101;-59
2023/09/25 19:30:36;;;;;;;4.22;1.92;;;;;;;;;;10360194;28;20033;-60
2023/09/25 19:35:36;;;;;;;4.50;1.92;;;;;;;;;;10347187;28;20906;-59
2023/09/25 19:40:37;;;;;;;10.13;2.05;;;;;;;;;;10341925;28;20033;-60
2023/09/25 19:45:37;;;;;;;3.15;1.77;;;;;;;;;;10349754;28;20035;-59
2023/09/25 19:50:38;;;;;;;4.78;1.85;;;;;;;;;;10341071;28;20049;-60
2023/09/25 19:55:39;;;;;;;4.78;2.03;;;;;;;;;;10346587;28;20026;-60
2023/09/25 20:00:39;;;;;;;4.22;2.50;;;;;;;;;;10336358;28;20121;-60
2023/09/25 20:05:40;;;;;;;4.40;2.05;;;;;;;;;;10351919;28;20026;-61
2023/09/25 20:10:40;;;;;;;7.28;2.58;;;;;;;;;;10342812;28;20030;-61
2023/09/25 20:15:41;;;;;;;4.95;2.53;;;;;;;;;;10343971;28;20273;-60
2023/09/25 20:20:52;;;;;;;5.22;2.28;;;;;;;;;;10339467;28;20096;-60
2023/09/25 20:25:53;;;;;;;19.90;2.22;;;;;;;;;;10345673;28;20064;-60
2023/09/25 20:30:53;;;;;;;5.75;2.40;;;;;;;;;;10342264;28;20033;-60
2023/09/25 20:35:54;;;;;;;3.58;2.20;;;;;;;;;;10344432;28;20029;-60
2023/09/25 20:40:55;;;;;;;11.60;2.30;;;;;;;;;;10370614;28;20171;-60
2023/09/25 20:45:56;;;;;;;6.63;2.20;;;;;;;;;;10360989;28;20191;-59
2023/09/25 20:50:56;;;;;;;7.80;2.58;;;;;;;;;;10359706;28;20052;-60
2023/09/25 20:55:57;;;;;;;6.53;2.58;;;;;;;;;;10369941;28;20037;-59
2023/09/25 21:00:58;;;;;;;4.35;2.47;;;;;;;;;;10366692;28;20398;-59
2023/09/25 21:05:58;;;;;;;6.32;2.60;;;;;;;;;;10357923;28;20474;-59
2023/09/25 21:10:59;;;;;;;6.32;2.30;;;;;;;;;;10367004;28;20512;-59
2023/09/25 21:16:03;;;;;;;4.63;2.28;;;;;;;;;;10349887;28;20023;-59
2023/09/25 21:21:06;;;;;;;8.90;2.55;;;;;;;;;;10354163;28;20045;-60
2023/09/25 21:26:08;;;;;;;3.35;2.30;;;;;;;;;;10349753;28;20477;-59
2023/09/25 21:31:08;;;;;;;3.97;2.45;;;;;;;;;;10347079;28;20033;-59
2023/09/25 21:36:09;;;;;;;4.43;2.50;;;;;;;;;;10349668;28;20029;-59
2023/09/25 21:41:09;;;;;;;5.03;2.17;;;;;;;;;;10350296;28;20042;-59
2023/09/25 21:46:10;;;;;;;4.70;2.47;;;;;;;;;;10364191;28;20018;-59
2023/09/25 21:51:10;;;;;;;3.75;2.28;;;;;;;;;;10354502;28;20509;-59
2023/09/25 21:56:11;;;;;;;7.60;2.70;;;;;;;;;;10355971;28;20026;-59
2023/09/25 22:01:13;;;;;;;2.88;1.92;;;;;;;;;;10367021;28;20052;-60
2023/09/25 22:06:13;;;;;;;3.63;2.33;;;;;;;;;;10366583;28;21317;-60
2023/09/25 22:11:14;;;;;;;2.78;1.77;;;;;;;;;;10366420;28;20486;-60
2023/09/25 22:16:15;;;;;;;3.05;2.00;;;;;;;;;;10366568;28;20489;-60
2023/09/25 22:21:16;;;;;;;3.83;2.22;;;;;;;;;;10366781;28;20437;-61
2023/09/25 22:26:16;;;;;;;2.40;2.00;;;;;;;;;;10354215;28;20097;-61
2023/09/25 22:31:19;;;;;;;3.25;2.30;;;;;;;;;;10364528;28;20029;-61
2023/09/25 22:36:19;;;;;;;3.85;2.33;;;;;;;;;;10353202;28;20533;-61
2023/09/25 22:41:21;;;;;;;5.18;1.92;;;;;;;;;;10365664;28;20037;-61
2023/09/25 22:46:22;;;;;;;3.58;2.35;;;;;;;;;;10357986;28;20441;-62
2023/09/25 22:51:23;;;;;;;9.50;2.22;;;;;;;;;;10366211;28;20030;-61
2023/09/25 22:56:24;;;;;;;4.70;2.00;;;;;;;;;;10354603;28;20108;-61
2023/09/25 23:01:24;;;;;;;5.35;2.17;;;;;;;;;;10363851;28;20105;-61
2023/09/25 23:06:26;;;;;;;2.40;1.88;;;;;;;;;;10361044;28;20457;-61
2023/09/25 23:11:26;;;;;;;4.47;2.13;;;;;;;;;;10365922;28;20073;-61
2023/09/25 23:16:27;;;;;;;2.97;2.08;;;;;;;;;;10359366;28;20027;-60
2023/09/25 23:21:27;;;;;;;3.42;1.92;;;;;;;;;;10366452;28;20037;-61
2023/09/25 23:26:28;;;;;;;2.83;1.95;;;;;;;;;;10365410;28;20028;-60
2023/09/25 23:31:28;;;;;;;3.42;1.90;;;;;;;;;;10361864;28;20041;-59
2023/09/25 23:36:29;;;;;;;3.90;2.15;;;;;;;;;;10345782;28;20034;-59
2023/09/25 23:41:30;;;;;;;3.58;2.17;;;;;;;;;;10364021;28;20034;-60
2023/09/25 23:46:31;;;;;;;3.55;1.83;;;;;;;;;;10364491;28;20038;-60
2023/09/25 23:51:32;;;;;;;6.35;2.13;;;;;;;;;;10362515;28;20029;-59
2023/09/25 23:56:33;;;;;;;4.63;2.08;;;;;;;;;;10364204;28;20491;-60
